createdAt,value
2022-11-14T00:01:16.580Z,6.97
2022-11-14T00:03:44.442Z,5.53
2022-11-14T00:06:13.427Z,6.13
2022-11-14T00:08:42.682Z,4.07
2022-11-14T00:11:10.710Z,6.13
2022-11-14T00:13:38.765Z,5.75
2022-11-14T00:16:06.872Z,5.15
2022-11-14T00:18:34.729Z,4.75
2022-11-14T00:21:02.615Z,5.90
2022-11-14T00:23:30.497Z,4.82
2022-11-14T00:25:59.791Z,4.70
2022-11-14T00:28:28.045Z,4.57
2022-11-14T00:30:56.137Z,5.30
2022-11-14T00:33:24.009Z,4.72
2022-11-14T00:35:53.445Z,4.00
2022-11-14T00:38:21.361Z,4.82
2022-11-14T00:40:49.437Z,3.97
2022-11-14T00:43:18.746Z,3.78
2022-11-14T00:45:47.673Z,4.20
2022-11-14T00:48:15.918Z,4.93
2022-11-14T00:50:44.545Z,5.47
2022-11-14T00:53:12.762Z,4.35
2022-11-14T00:55:40.917Z,4.22
2022-11-14T00:58:08.839Z,3.60
2022-11-14T01:00:38.476Z,4.60
2022-11-14T01:03:06.515Z,3.05
2022-11-14T01:05:34.470Z,2.20
2022-11-14T01:08:02.347Z,1.90
2022-11-14T01:10:30.255Z,1.90
2022-11-14T01:12:58.364Z,1.60
2022-11-14T01:15:26.382Z,1.50
2022-11-14T01:17:55.643Z,0.95
2022-11-14T01:20:23.562Z,1.20
2022-11-14T01:22:51.465Z,1.25
2022-11-14T01:25:19.337Z,1.23
2022-11-14T01:27:47.299Z,1.30
2022-11-14T01:30:15.511Z,1.63
2022-11-14T01:32:43.431Z,1.80
2022-11-14T01:35:12.663Z,2.00
2022-11-14T01:37:40.521Z,1.95
2022-11-14T01:40:09.881Z,1.60
2022-11-14T01:42:37.756Z,1.83
2022-11-14T01:45:39.034Z,1.58
2022-11-14T01:48:19.589Z,1.63
2022-11-14T01:50:54.734Z,1.65
2022-11-14T01:53:22.745Z,1.75
2022-11-14T01:55:51.435Z,1.30
2022-11-14T01:58:19.851Z,1.48
2022-11-14T02:00:47.767Z,1.33
2022-11-14T02:03:16.848Z,1.20
2022-11-14T02:05:48.358Z,1.35
2022-11-14T02:08:18.979Z,1.10
2022-11-14T02:10:46.835Z,1.45
2022-11-14T02:13:15.094Z,1.40
2022-11-14T02:15:42.993Z,1.45
2022-11-14T02:18:12.428Z,1.95
2022-11-14T02:20:43.400Z,2.20
2022-11-14T02:23:12.851Z,2.90
2022-11-14T02:25:41.535Z,3.30
2022-11-14T02:28:10.993Z,2.42
2022-11-14T02:30:38.956Z,2.58
2022-11-14T02:33:11.263Z,3.03
2022-11-14T02:35:41.162Z,4.10
2022-11-14T02:38:09.357Z,3.73
2022-11-14T02:40:37.221Z,3.13
2022-11-14T02:43:05.224Z,4.07
2022-11-14T02:45:33.127Z,4.28
2022-11-14T02:48:00.993Z,4.05
2022-11-14T02:50:28.973Z,3.70
2022-11-14T02:52:58.220Z,4.20
2022-11-14T02:55:26.168Z,4.22
2022-11-14T02:57:54.231Z,3.67
2022-11-14T03:00:22.279Z,4.05
2022-11-14T03:02:50.138Z,4.03
2022-11-14T03:05:18.147Z,3.72
2022-11-14T03:07:46.015Z,4.60
2022-11-14T03:10:15.881Z,3.92
2022-11-14T03:12:43.749Z,3.35
2022-11-14T03:15:12.325Z,3.80
2022-11-14T03:17:40.462Z,3.63
2022-11-14T03:20:10.437Z,4.53
2022-11-14T03:22:38.327Z,4.40
2022-11-14T03:25:06.973Z,4.40
2022-11-14T03:27:36.491Z,4.00
2022-11-14T03:30:05.781Z,4.47
2022-11-14T03:32:33.643Z,4.38
2022-11-14T03:35:01.501Z,3.90
2022-11-14T03:37:29.411Z,4.75
2022-11-14T03:39:57.304Z,4.45
2022-11-14T03:42:25.160Z,4.40
2022-11-14T03:44:54.412Z,5.20
2022-11-14T03:47:22.269Z,5.30
2022-11-14T03:49:50.124Z,4.32
2022-11-14T03:52:18.143Z,4.80
2022-11-14T03:54:45.989Z,5.15
2022-11-14T03:57:13.950Z,5.30
2022-11-14T03:59:41.938Z,4.80
2022-11-14T04:02:11.157Z,4.80
2022-11-14T04:04:39.011Z,5.63
2022-11-14T04:07:06.940Z,4.68
2022-11-14T04:09:34.807Z,5.45
2022-11-14T04:12:02.672Z,5.00
2022-11-14T04:14:30.522Z,4.97
2022-11-14T04:16:58.414Z,4.15
2022-11-14T04:19:27.639Z,5.97
2022-11-14T04:21:55.696Z,5.30
2022-11-14T04:24:23.668Z,5.53
2022-11-14T04:26:51.581Z,5.30
2022-11-14T04:29:19.501Z,5.22
2022-11-14T04:31:47.377Z,5.22
2022-11-14T04:34:15.257Z,5.13
2022-11-14T04:36:44.702Z,4.65
2022-11-14T04:39:12.582Z,4.10
2022-11-14T04:41:40.450Z,4.43
2022-11-14T04:44:08.497Z,4.90
2022-11-14T04:46:36.540Z,5.20
2022-11-14T04:49:04.436Z,5.95
2022-11-14T04:51:32.973Z,4.78
2022-11-14T04:54:02.247Z,6.72
2022-11-14T04:56:30.141Z,4.80
2022-11-14T04:58:58.145Z,4.97
2022-11-14T05:01:26.091Z,5.30
2022-11-14T05:03:53.950Z,5.00
2022-11-14T05:06:21.800Z,5.10
2022-11-14T05:08:49.671Z,4.93
2022-11-14T05:11:24.111Z,4.90
2022-11-14T05:13:54.501Z,5.15
2022-11-14T05:16:22.513Z,4.78
2022-11-14T05:18:50.557Z,5.68
2022-11-14T05:21:18.430Z,4.75
2022-11-14T05:23:46.302Z,5.57
2022-11-14T05:26:16.860Z,4.88
2022-11-14T05:28:46.222Z,5.45
2022-11-14T05:31:17.891Z,5.33
2022-11-14T05:33:46.692Z,5.28
2022-11-14T05:36:16.667Z,5.25
2022-11-14T05:38:44.846Z,5.38
2022-11-14T05:41:14.871Z,5.63
2022-11-14T05:43:43.210Z,4.50
2022-11-14T05:46:14.346Z,6.20
2022-11-14T05:48:42.969Z,5.35
2022-11-14T05:51:13.562Z,4.78
2022-11-14T05:53:42.217Z,4.65
2022-11-14T05:56:13.172Z,4.50
2022-11-14T05:58:41.504Z,4.40
2022-11-14T06:01:11.457Z,4.20
2022-11-14T06:03:42.574Z,4.00
2022-11-14T06:06:12.693Z,3.97
2022-11-14T06:08:40.782Z,3.60
2022-11-14T06:11:10.545Z,3.90
2022-11-14T06:13:38.707Z,3.60
2022-11-14T06:16:08.780Z,3.50
2022-11-14T06:18:37.669Z,3.83
2022-11-14T06:21:08.273Z,3.30
2022-11-14T06:23:36.168Z,2.88
2022-11-14T06:26:06.443Z,3.25
2022-11-14T06:31:03.686Z,2.97
2022-11-14T06:33:35.508Z,3.40
2022-11-14T06:36:05.847Z,3.08
2022-11-14T06:41:05.114Z,3.42
2022-11-14T06:43:36.477Z,3.35
2022-11-14T06:46:05.138Z,3.28
2022-11-14T06:48:33.581Z,2.70
2022-11-14T06:51:02.703Z,3.42
2022-11-14T06:53:32.712Z,2.97
2022-11-14T06:56:04.302Z,3.28
2022-11-14T06:58:34.453Z,3.47
2022-11-14T07:01:06.318Z,2.17
2022-11-14T07:03:34.617Z,3.22
2022-11-14T07:06:03.227Z,2.67
2022-11-14T07:08:32.433Z,2.80
2022-11-14T07:11:06.514Z,2.90
2022-11-14T07:13:35.156Z,2.83
2022-11-14T07:16:03.932Z,2.33
2022-11-14T07:18:32.999Z,2.38
2022-11-14T07:21:02.701Z,2.10
2022-11-14T07:23:31.354Z,2.20
2022-11-14T07:26:01.990Z,2.97
2022-11-14T07:28:32.285Z,3.33
2022-11-14T07:31:00.361Z,4.25
2022-11-14T07:33:28.205Z,2.90
2022-11-14T07:35:56.049Z,2.90
2022-11-14T07:38:23.909Z,2.30
2022-11-14T07:40:59.510Z,2.08
2022-11-14T07:43:28.888Z,2.40
2022-11-14T07:46:01.790Z,2.05
2022-11-14T07:48:29.876Z,2.03
2022-11-14T07:51:00.585Z,1.58
2022-11-14T07:53:29.013Z,1.95
2022-11-14T07:55:56.990Z,1.60
2022-11-14T07:58:25.049Z,1.50
2022-11-14T08:00:52.981Z,1.23
2022-11-14T08:03:22.273Z,1.40
2022-11-14T08:05:50.118Z,1.30
2022-11-14T08:08:18.027Z,1.42
2022-11-14T08:10:45.871Z,1.00
2022-11-14T08:16:10.726Z,1.40
2022-11-14T08:18:44.923Z,1.50
2022-11-14T08:21:15.824Z,1.67
2022-11-14T08:23:46.734Z,1.75
2022-11-14T08:26:17.592Z,1.75
2022-11-14T08:28:45.427Z,2.38
2022-11-14T08:31:14.980Z,1.60
2022-11-14T08:33:47.027Z,1.60
2022-11-14T08:36:14.862Z,1.33
2022-11-14T08:38:42.738Z,1.65
2022-11-14T08:41:13.481Z,1.52
2022-11-14T08:43:41.349Z,1.63
2022-11-14T08:46:11.506Z,1.73
2022-11-14T08:48:41.792Z,1.50
2022-11-14T08:51:11.042Z,1.42
2022-11-14T08:53:38.945Z,1.38
2022-11-14T08:56:07.068Z,1.27
2022-11-14T08:58:34.943Z,1.40
2022-11-14T09:01:03.646Z,1.58
2022-11-14T09:03:31.898Z,1.30
2022-11-14T09:06:00.429Z,1.40
2022-11-14T09:08:30.732Z,1.33
2022-11-14T09:11:05.124Z,1.35
2022-11-14T09:13:34.648Z,1.30
2022-11-14T09:16:02.738Z,1.35
2022-11-14T09:18:31.722Z,1.33
2022-11-14T09:21:02.055Z,1.20
2022-11-14T09:23:31.858Z,1.23
2022-11-14T09:26:04.124Z,1.48
2022-11-14T09:28:32.060Z,1.17
2022-11-14T09:31:02.212Z,1.40
2022-11-14T09:33:30.704Z,1.15
2022-11-14T09:35:59.371Z,1.25
2022-11-14T09:38:27.697Z,1.15
2022-11-14T09:41:10.124Z,1.20
2022-11-14T09:44:00.257Z,1.17
2022-11-14T09:46:33.054Z,1.10
2022-11-14T09:49:01.212Z,1.40
2022-11-14T09:51:34.447Z,1.30
2022-11-14T09:54:13.065Z,1.30
2022-11-14T09:56:42.337Z,1.20
2022-11-14T09:59:12.398Z,1.08
2022-11-14T10:01:47.125Z,1.70
2022-11-14T10:04:23.707Z,1.38
2022-11-14T10:07:02.376Z,1.23
2022-11-14T10:09:48.033Z,1.17
2022-11-14T10:12:25.284Z,1.55
2022-11-14T10:15:17.640Z,1.58
2022-11-14T10:18:08.159Z,1.50
2022-11-14T10:23:32.906Z,1.70
2022-11-14T10:26:11.905Z,1.42
2022-11-14T10:29:05.890Z,1.50
2022-11-14T10:31:45.410Z,1.50
2022-11-14T10:34:18.696Z,1.77
2022-11-14T10:36:59.279Z,1.63
2022-11-14T10:39:33.599Z,1.35
2022-11-14T10:42:07.841Z,1.65
2022-11-14T10:44:43.163Z,1.45
2022-11-14T10:47:16.531Z,1.30
2022-11-14T10:49:48.327Z,1.40
2022-11-14T10:52:19.237Z,1.35
2022-11-14T10:54:52.300Z,1.15
2022-11-14T10:57:22.066Z,1.20
2022-11-14T10:59:57.581Z,1.58
2022-11-14T11:02:25.491Z,1.40
2022-11-14T11:04:53.385Z,1.30
2022-11-14T11:07:41.759Z,1.13
2022-11-14T11:10:39.785Z,1.10
2022-11-14T11:13:07.854Z,1.38
2022-11-14T11:15:43.530Z,1.40
2022-11-14T11:18:27.160Z,1.50
2022-11-14T11:21:07.459Z,1.17
2022-11-14T11:23:36.209Z,1.42
2022-11-14T11:26:07.842Z,1.58
2022-11-14T11:28:37.401Z,1.48
2022-11-14T11:31:08.501Z,1.45
2022-11-14T11:33:37.603Z,1.05
2022-11-14T11:36:08.759Z,1.20
2022-11-14T11:38:39.212Z,1.55
2022-11-14T11:41:33.393Z,1.23
2022-11-14T11:44:08.490Z,1.30
2022-11-14T11:46:45.946Z,1.63
2022-11-14T11:49:19.815Z,1.10
2022-11-14T11:51:48.492Z,1.45
2022-11-14T11:54:19.695Z,1.30
2022-11-14T11:56:53.274Z,1.20
2022-11-14T11:59:33.568Z,1.40
2022-11-14T12:02:05.422Z,1.30
2022-11-14T12:04:33.382Z,1.50
2022-11-14T12:07:13.516Z,1.30
2022-11-14T12:10:09.254Z,1.20
2022-11-14T12:12:48.601Z,1.90
2022-11-14T12:15:23.691Z,1.58
2022-11-14T12:18:19.180Z,1.40
2022-11-14T12:21:06.798Z,1.38
2022-11-14T12:24:13.067Z,1.75
2022-11-14T12:26:58.214Z,1.42
2022-11-14T12:29:43.330Z,1.58
2022-11-14T12:32:16.788Z,1.40
2022-11-14T12:34:48.966Z,1.60
2022-11-14T12:37:21.972Z,1.55
2022-11-14T12:39:58.786Z,1.48
2022-11-14T12:42:26.938Z,1.73
2022-11-14T12:44:54.830Z,1.55
2022-11-14T12:47:26.569Z,1.70
2022-11-14T12:50:21.058Z,1.55
2022-11-14T12:52:50.892Z,1.75
2022-11-14T12:55:55.816Z,1.85
2022-11-14T12:58:47.151Z,1.70
2022-11-14T13:01:43.319Z,2.30
2022-11-14T13:04:23.995Z,2.33
2022-11-14T13:07:06.965Z,2.15
2022-11-14T13:09:42.840Z,2.15
2022-11-14T13:12:47.627Z,2.47
2022-11-14T13:15:49.236Z,2.30
2022-11-14T13:18:42.108Z,2.17
2022-11-14T13:21:45.138Z,2.17
2022-11-14T13:24:17.023Z,2.28
2022-11-14T13:26:50.362Z,2.33
2022-11-14T13:29:49.088Z,2.75
2022-11-14T13:32:54.590Z,2.78
2022-11-14T13:35:32.137Z,3.00
2022-11-14T13:38:33.131Z,3.13
2022-11-14T13:41:20.159Z,3.03
2022-11-14T13:44:07.401Z,3.10
2022-11-14T13:46:56.578Z,3.50
2022-11-14T13:49:38.679Z,3.25
2022-11-14T13:52:07.376Z,3.53
2022-11-14T13:54:35.305Z,3.05
2022-11-14T13:57:15.451Z,4.13
2022-11-14T13:59:53.737Z,3.78
2022-11-14T14:02:47.867Z,3.50
2022-11-14T14:05:33.708Z,3.92
2022-11-14T14:08:21.410Z,4.00
2022-11-14T14:11:04.250Z,3.60
2022-11-14T14:13:47.992Z,5.15
2022-11-14T14:16:30.037Z,3.90
2022-11-14T14:19:08.663Z,4.75
2022-11-14T14:21:45.749Z,4.57
2022-11-14T14:24:28.198Z,4.47
2022-11-14T14:27:07.187Z,4.40
2022-11-14T14:29:46.861Z,4.00
2022-11-14T14:32:16.677Z,4.20
2022-11-14T14:34:45.542Z,4.07
2022-11-14T14:37:21.441Z,4.47
2022-11-14T14:39:59.695Z,4.53
2022-11-14T14:42:34.680Z,4.47
2022-11-14T14:45:05.797Z,4.90
2022-11-14T14:47:41.265Z,5.20
2022-11-14T14:50:17.340Z,5.50
2022-11-14T14:52:45.556Z,5.55
2022-11-14T14:55:25.402Z,5.88
2022-11-14T14:57:53.275Z,5.93
2022-11-14T15:00:26.708Z,5.97
2022-11-14T15:02:56.689Z,5.55
2022-11-14T15:05:25.537Z,5.38
2022-11-14T15:07:54.953Z,5.72
2022-11-14T15:10:25.004Z,6.65
2022-11-14T15:12:54.169Z,5.75
2022-11-14T15:15:25.752Z,5.85
2022-11-14T15:17:55.213Z,5.75
2022-11-14T15:20:24.773Z,5.33
2022-11-14T15:23:07.291Z,5.60
2022-11-14T15:25:35.522Z,4.75
2022-11-14T15:28:04.056Z,5.53
2022-11-14T15:30:35.703Z,5.30
2022-11-14T15:33:05.050Z,5.38
2022-11-14T15:35:34.465Z,5.68
2022-11-14T15:38:28.859Z,5.20
2022-11-14T15:41:17.434Z,5.28
2022-11-14T15:43:50.567Z,5.88
2022-11-14T15:46:39.153Z,5.95
2022-11-14T15:49:18.711Z,5.65
2022-11-14T15:51:51.609Z,5.80
2022-11-14T15:54:24.710Z,6.30
2022-11-14T15:56:53.111Z,5.45
2022-11-14T15:59:21.438Z,4.93
2022-11-14T16:01:54.117Z,5.10
2022-11-14T16:04:24.757Z,5.47
2022-11-14T16:06:55.664Z,5.72
2022-11-14T16:09:23.723Z,5.32
2022-11-14T16:11:51.838Z,5.43
2022-11-14T16:14:19.786Z,5.40
2022-11-14T16:16:47.661Z,5.70
2022-11-14T16:19:17.982Z,5.35
2022-11-14T16:24:18.092Z,5.28
2022-11-14T16:26:46.044Z,5.22
2022-11-14T16:29:13.928Z,5.15
2022-11-14T16:31:42.234Z,4.63
2022-11-14T16:34:14.798Z,4.35
2022-11-14T16:36:46.106Z,5.05
2022-11-14T16:39:14.455Z,4.75
2022-11-14T16:41:42.366Z,5.20
2022-11-14T16:44:15.901Z,5.00
2022-11-14T16:46:43.946Z,4.43
2022-11-14T16:49:15.167Z,4.07
2022-11-14T16:51:48.469Z,4.20
2022-11-14T16:54:17.330Z,3.67
2022-11-14T16:56:45.266Z,4.05
2022-11-14T16:59:13.368Z,3.78
2022-11-14T17:01:41.311Z,3.75
2022-11-14T17:04:09.219Z,3.70
2022-11-14T17:06:37.110Z,3.60
2022-11-14T17:09:06.427Z,3.97
2022-11-14T17:11:34.288Z,3.85
2022-11-14T17:14:02.199Z,4.10
2022-11-14T17:16:30.279Z,3.58
2022-11-14T17:18:58.119Z,4.30
2022-11-14T17:21:26.466Z,3.47
2022-11-14T17:23:56.085Z,3.60
2022-11-14T17:26:25.379Z,3.20
2022-11-14T17:28:53.541Z,3.70
2022-11-14T17:31:21.581Z,3.70
2022-11-14T17:33:53.354Z,4.38
2022-11-14T17:36:22.470Z,3.78
2022-11-14T17:38:50.363Z,3.35
2022-11-14T17:41:18.439Z,3.90
2022-11-14T17:43:47.851Z,4.40
2022-11-14T17:46:16.494Z,3.63
2022-11-14T17:48:44.581Z,3.85
2022-11-14T17:51:14.509Z,4.45
2022-11-14T17:53:42.795Z,4.10
2022-11-14T17:56:14.525Z,4.10
2022-11-14T17:58:43.174Z,4.35
2022-11-14T18:01:13.491Z,3.80
2022-11-14T18:06:10.360Z,3.30
2022-11-14T18:08:38.493Z,3.30
2022-11-14T18:11:08.289Z,3.80
2022-11-14T18:13:36.402Z,3.85
2022-11-14T18:16:05.433Z,3.92
2022-11-14T18:18:36.396Z,3.60
2022-11-14T18:21:08.913Z,3.72
2022-11-14T18:23:38.724Z,3.50
2022-11-14T18:26:13.302Z,4.43
2022-11-14T18:28:44.393Z,3.28
2022-11-14T18:31:13.874Z,3.17
2022-11-14T18:33:43.501Z,3.70
2022-11-14T18:36:13.250Z,3.85
2022-11-14T18:38:41.658Z,3.72
2022-11-14T18:41:11.410Z,3.72
2022-11-14T18:43:39.250Z,3.33
2022-11-14T18:46:08.650Z,3.30
2022-11-14T18:48:36.821Z,2.60
2022-11-14T18:51:07.850Z,3.10
2022-11-14T18:53:36.983Z,2.75
2022-11-14T18:56:05.860Z,2.47
2022-11-14T18:58:34.037Z,2.53
2022-11-14T19:01:10.192Z,2.60
2022-11-14T19:03:38.154Z,3.00
2022-11-14T19:06:09.161Z,3.40
2022-11-14T19:08:37.226Z,3.50
2022-11-14T19:11:06.461Z,3.90
2022-11-14T19:13:34.718Z,3.08
2022-11-14T19:16:03.393Z,3.30
2022-11-14T19:18:32.413Z,3.65
2022-11-14T19:21:01.710Z,3.75
2022-11-14T19:23:31.424Z,3.28
2022-11-14T19:26:00.831Z,2.85
2022-11-14T19:28:29.859Z,2.90
2022-11-14T19:31:03.037Z,2.90
2022-11-14T19:33:31.722Z,3.20
2022-11-14T19:36:05.493Z,3.25
2022-11-14T19:38:35.293Z,3.30
2022-11-14T19:41:08.060Z,3.05
2022-11-14T19:43:38.016Z,3.28
2022-11-14T19:46:06.991Z,3.25
2022-11-14T19:48:35.995Z,3.03
2022-11-14T19:51:06.034Z,3.13
2022-11-14T19:53:36.803Z,3.33
2022-11-14T19:56:06.683Z,3.88
2022-11-14T19:58:36.758Z,3.75
2022-11-14T20:01:06.639Z,3.78
2022-11-14T20:03:34.837Z,3.35
2022-11-14T20:06:03.419Z,3.53
2022-11-14T20:08:31.584Z,3.47
2022-11-14T20:11:02.590Z,2.80
2022-11-14T20:13:35.892Z,2.75
2022-11-14T20:16:09.629Z,2.95
2022-11-14T20:18:37.922Z,1.95
2022-11-14T20:21:07.949Z,2.00
2022-11-14T20:23:36.439Z,1.90
2022-11-14T20:26:11.091Z,1.50
2022-11-14T20:28:39.925Z,1.90
2022-11-14T20:31:12.920Z,1.65
2022-11-14T20:33:43.208Z,1.30
2022-11-14T20:36:13.159Z,1.25
2022-11-14T20:38:41.368Z,1.83
2022-11-14T20:41:11.192Z,1.60
2022-11-14T20:43:39.334Z,1.95
2022-11-14T20:46:09.379Z,1.80
2022-11-14T20:48:37.392Z,1.80
2022-11-14T20:51:05.816Z,1.80
2022-11-14T20:53:34.468Z,2.10
2022-11-14T20:56:04.046Z,2.10
2022-11-14T20:58:33.771Z,2.10
2022-11-14T21:01:01.942Z,2.20
2022-11-14T21:03:30.325Z,2.45
2022-11-14T21:05:58.635Z,2.28
2022-11-14T21:08:26.512Z,2.20
2022-11-14T21:11:00.118Z,2.30
2022-11-14T21:13:45.549Z,2.30
2022-11-14T21:16:16.826Z,2.28
2022-11-14T21:18:48.155Z,2.08
2022-11-14T21:21:18.081Z,2.30
2022-11-14T21:23:47.079Z,3.10
2022-11-14T21:26:16.775Z,2.50
2022-11-14T21:28:46.318Z,2.72
2022-11-14T21:31:18.122Z,2.75
2022-11-14T21:33:47.229Z,2.17
2022-11-14T21:36:43.277Z,2.03
2022-11-14T21:39:05.569Z,2.33
2022-11-14T21:41:33.876Z,2.33
2022-11-14T21:44:04.390Z,2.33
2022-11-14T21:46:33.628Z,2.10
2022-11-14T21:49:01.464Z,1.70
2022-11-14T21:51:30.176Z,2.33
2022-11-14T21:53:59.412Z,2.45
2022-11-14T21:56:29.035Z,2.70
2022-11-14T21:59:11.677Z,2.28
2022-11-14T22:01:58.084Z,2.33
2022-11-14T22:04:26.325Z,2.58
2022-11-14T22:06:54.646Z,2.88
2022-11-14T22:09:23.167Z,3.30
2022-11-14T22:11:54.151Z,3.10
2022-11-14T22:14:22.018Z,2.30
2022-11-14T22:16:51.234Z,2.45
2022-11-14T22:19:19.734Z,2.60
2022-11-14T22:21:47.807Z,2.67
2022-11-14T22:24:15.689Z,2.95
2022-11-14T22:26:43.543Z,2.50
2022-11-14T22:29:11.555Z,2.17
2022-11-14T22:31:39.445Z,2.45
2022-11-14T22:34:08.681Z,1.75
2022-11-14T22:36:36.803Z,1.75
2022-11-14T22:39:05.524Z,1.90
2022-11-14T22:41:34.157Z,2.00
2022-11-14T22:44:02.929Z,2.15
2022-11-14T22:46:31.041Z,2.55
2022-11-14T22:48:59.341Z,2.20
2022-11-14T22:51:29.316Z,2.35
2022-11-14T22:53:59.167Z,2.45
2022-11-14T22:56:30.893Z,2.08
2022-11-14T22:59:00.618Z,2.40
2022-11-14T23:01:33.222Z,2.45
2022-11-14T23:04:02.981Z,3.05
2022-11-14T23:06:35.492Z,2.83
2022-11-14T23:09:05.054Z,1.90
2022-11-14T23:11:33.878Z,2.00
2022-11-14T23:14:02.254Z,1.40
2022-11-14T23:16:32.081Z,1.52
2022-11-14T23:19:02.134Z,1.85
2022-11-14T23:21:32.888Z,1.58
2022-11-14T23:24:04.753Z,1.60
2022-11-14T23:26:33.408Z,2.20
2022-11-14T23:29:01.988Z,2.35
2022-11-14T23:31:29.854Z,3.10
2022-11-14T23:33:58.900Z,2.40
2022-11-14T23:36:27.119Z,2.28
2022-11-14T23:38:55.014Z,2.30
2022-11-14T23:41:26.743Z,2.03
2022-11-14T23:43:54.733Z,2.05
2022-11-14T23:46:22.587Z,2.03
2022-11-14T23:48:50.843Z,2.13
2022-11-14T23:51:18.880Z,2.22
2022-11-14T23:53:46.925Z,1.67
2022-11-14T23:56:15.938Z,1.85
2022-11-14T23:58:45.348Z,2.13
